createdAt,value
2018-09-21T00:02:25.544Z,22.17
2018-09-21T00:04:55.383Z,19.93
2018-09-21T00:07:25.328Z,18.67
2018-09-21T00:09:55.187Z,17.30
2018-09-21T00:12:25.111Z,17.63
2018-09-21T00:14:55.739Z,18.90
2018-09-21T00:17:26.254Z,19.53
2018-09-21T00:19:56.275Z,19.77
2018-09-21T00:22:26.804Z,18.13
2018-09-21T00:24:56.515Z,18.73
2018-09-21T00:27:27.148Z,16.47
2018-09-21T00:29:57.678Z,19.03
2018-09-21T00:32:27.787Z,20.30
2018-09-21T00:34:58.116Z,17.50
2018-09-21T00:37:27.935Z,19.63
2018-09-21T00:39:57.884Z,15.07
2018-09-21T00:42:28.239Z,14.63
2018-09-21T00:44:58.338Z,17.90
2018-09-21T00:47:28.057Z,22.35
2018-09-21T00:49:58.184Z,24.63
2018-09-21T00:52:28.711Z,14.83
2018-09-21T00:54:58.260Z,16.27
2018-09-21T00:57:29.155Z,15.80
2018-09-21T00:59:59.160Z,14.33
2018-09-21T01:02:29.274Z,10.23
2018-09-21T01:04:59.047Z,12.10
2018-09-21T01:07:29.580Z,11.23
2018-09-21T01:09:59.740Z,10.17
2018-09-21T01:12:29.515Z,11.57
2018-09-21T01:14:59.712Z,13.60
2018-09-21T01:17:29.667Z,10.80
2018-09-21T01:19:59.963Z,11.97
2018-09-21T01:22:30.492Z,13.10
2018-09-21T01:25:00.631Z,16.87
2018-09-21T01:27:31.127Z,13.37
2018-09-21T01:30:00.791Z,15.17
2018-09-21T01:32:30.812Z,14.00
2018-09-21T01:35:00.946Z,13.67
2018-09-21T01:37:31.319Z,13.57
2018-09-21T01:40:01.843Z,12.23
2018-09-21T01:42:32.495Z,14.27
2018-09-21T01:45:02.431Z,13.50
2018-09-21T01:47:32.763Z,12.47
2018-09-21T01:50:03.351Z,14.90
2018-09-21T01:52:33.971Z,16.80
2018-09-21T01:55:04.612Z,13.57
2018-09-21T01:57:34.483Z,11.63
2018-09-21T02:00:05.054Z,12.00
2018-09-21T02:02:34.923Z,12.87
2018-09-21T02:05:04.989Z,13.13
2018-09-21T02:07:35.823Z,15.13
2018-09-21T02:10:05.903Z,15.93
2018-09-21T02:12:35.775Z,13.27
2018-09-21T02:15:05.727Z,15.80
2018-09-21T02:17:35.520Z,13.73
2018-09-21T02:20:05.959Z,11.53
2018-09-21T02:22:36.230Z,11.93
2018-09-21T02:25:06.279Z,11.50
2018-09-21T02:27:36.501Z,11.57
2018-09-21T02:30:06.599Z,13.43
2018-09-21T02:32:36.964Z,15.00
2018-09-21T02:35:07.006Z,13.07
2018-09-21T02:37:36.801Z,11.77
2018-09-21T02:40:07.488Z,10.87
2018-09-21T02:42:37.605Z,12.50
2018-09-21T02:45:07.874Z,13.40
2018-09-21T02:47:37.624Z,12.03
2018-09-21T02:50:07.888Z,12.13
2018-09-21T02:52:37.840Z,10.83
2018-09-21T02:55:07.739Z,10.73
2018-09-21T02:57:37.811Z,13.40
2018-09-21T03:00:07.991Z,12.78
2018-09-21T03:02:38.399Z,10.23
2018-09-21T03:05:08.033Z,10.70
2018-09-21T03:07:38.904Z,11.30
2018-09-21T03:10:09.531Z,13.63
2018-09-21T03:12:39.399Z,11.40
2018-09-21T03:15:09.172Z,13.47
2018-09-21T03:17:39.132Z,11.70
2018-09-21T03:20:09.448Z,12.40
2018-09-21T03:22:40.335Z,12.47
2018-09-21T03:25:10.453Z,12.13
2018-09-21T03:27:41.088Z,12.77
2018-09-21T03:30:10.815Z,14.75
2018-09-21T03:32:40.532Z,13.63
2018-09-21T03:35:10.979Z,13.53
2018-09-21T03:37:40.852Z,13.73
2018-09-21T03:40:11.583Z,12.83
2018-09-21T03:42:41.887Z,11.90
2018-09-21T03:45:11.912Z,10.47
2018-09-21T03:47:42.755Z,10.97
2018-09-21T03:50:13.048Z,11.67
2018-09-21T03:52:43.919Z,13.60
2018-09-21T03:55:13.976Z,12.87
2018-09-21T03:57:44.003Z,11.33
2018-09-21T04:00:14.591Z,11.43
2018-09-21T04:02:44.604Z,9.93
2018-09-21T04:05:15.340Z,11.00
2018-09-21T04:07:45.505Z,13.03
2018-09-21T04:10:16.292Z,14.37
2018-09-21T04:12:46.103Z,12.03
2018-09-21T04:15:15.763Z,11.63
2018-09-21T04:17:45.671Z,14.17
2018-09-21T04:20:15.240Z,12.93
2018-09-21T04:22:51.707Z,18.27
2018-09-21T04:25:21.608Z,14.50
2018-09-21T04:27:52.456Z,13.93
2018-09-21T04:30:21.972Z,11.87
2018-09-21T04:32:51.975Z,14.40
2018-09-21T04:35:21.807Z,12.67
2018-09-21T04:37:52.424Z,11.97
2018-09-21T04:40:22.339Z,12.60
2018-09-21T04:42:52.864Z,11.57
2018-09-21T04:45:22.883Z,11.23
2018-09-21T04:47:52.743Z,14.03
2018-09-21T04:50:23.153Z,10.90
2018-09-21T04:52:53.753Z,11.70
2018-09-21T04:55:23.579Z,14.30
2018-09-21T04:57:53.784Z,10.60
2018-09-21T05:00:25.083Z,15.37
2018-09-21T05:02:54.844Z,14.77
2018-09-21T05:05:25.183Z,13.00
2018-09-21T05:07:54.964Z,13.80
2018-09-21T05:10:24.975Z,13.73
2018-09-21T05:12:55.530Z,12.30
2018-09-21T05:15:25.549Z,15.60
2018-09-21T05:17:55.631Z,12.93
2018-09-21T05:20:25.683Z,15.90
2018-09-21T05:22:56.215Z,12.53
2018-09-21T05:25:26.434Z,13.10
2018-09-21T05:27:56.605Z,14.83
2018-09-21T05:30:26.423Z,11.70
2018-09-21T05:32:57.000Z,12.43
2018-09-21T05:35:26.891Z,14.27
2018-09-21T05:37:57.134Z,14.13
2018-09-21T05:40:26.987Z,10.37
2018-09-21T05:42:56.567Z,18.37
2018-09-21T05:45:26.220Z,10.50
2018-09-21T05:47:55.816Z,9.73
2018-09-21T05:50:26.507Z,14.67
2018-09-21T05:52:56.347Z,13.47
2018-09-21T05:55:26.636Z,14.53
2018-09-21T05:57:56.379Z,15.90
2018-09-21T06:00:27.083Z,17.10
2018-09-21T06:02:57.882Z,15.20
2018-09-21T06:05:28.083Z,15.87
2018-09-21T06:07:58.725Z,12.53
2018-09-21T06:10:28.434Z,12.47
2018-09-21T06:12:58.351Z,11.70
2018-09-21T06:15:28.428Z,14.03
2018-09-21T06:17:58.952Z,29.20
2018-09-21T06:20:29.371Z,13.77
2018-09-21T06:22:59.925Z,13.00
2018-09-21T06:25:31.057Z,11.37
2018-09-21T06:28:00.883Z,11.35
2018-09-21T06:30:30.766Z,11.75
2018-09-21T06:33:01.348Z,13.00
2018-09-21T06:35:31.039Z,8.65
2018-09-21T06:38:01.543Z,11.10
2018-09-21T06:40:31.135Z,9.83
2018-09-21T06:43:01.784Z,10.53
2018-09-21T06:45:31.836Z,13.08
2018-09-21T06:48:01.796Z,10.65
2018-09-21T06:50:32.280Z,11.10
2018-09-21T06:53:01.979Z,10.55
2018-09-21T06:55:33.095Z,11.40
2018-09-21T06:58:02.627Z,9.45
2018-09-21T07:00:33.131Z,10.48
2018-09-21T07:03:03.761Z,11.20
2018-09-21T07:05:34.395Z,14.65
2018-09-21T07:08:04.456Z,10.90
2018-09-21T07:10:34.844Z,11.35
2018-09-21T07:13:04.992Z,14.05
2018-09-21T07:15:35.592Z,16.65
2018-09-21T07:18:05.820Z,13.45
2018-09-21T07:20:35.564Z,12.30
2018-09-21T07:23:06.152Z,13.28
2018-09-21T07:25:36.732Z,16.02
2018-09-21T07:28:07.519Z,12.93
2018-09-21T07:30:37.408Z,11.10
2018-09-21T07:33:07.364Z,11.28
2018-09-21T07:35:37.160Z,12.20
2018-09-21T07:38:07.076Z,13.25
2018-09-21T07:40:37.039Z,11.80
2018-09-21T07:43:06.989Z,12.78
2018-09-21T07:45:36.842Z,12.85
2018-09-21T07:48:06.889Z,19.00
2018-09-21T07:50:37.692Z,16.93
2018-09-21T07:53:07.548Z,11.05
2018-09-21T07:55:37.932Z,10.20
2018-09-21T07:58:08.043Z,11.57
2018-09-21T08:00:38.194Z,27.42
2018-09-21T08:03:07.787Z,11.03
2018-09-21T08:05:37.396Z,11.97
2018-09-21T08:08:07.387Z,11.33
2018-09-21T08:10:37.683Z,12.07
2018-09-21T08:13:07.556Z,14.45
2018-09-21T08:15:38.663Z,12.63
2018-09-21T08:18:09.038Z,12.85
2018-09-21T08:20:39.112Z,14.05
2018-09-21T08:23:09.382Z,9.25
2018-09-21T08:25:40.292Z,11.22
2018-09-21T08:28:10.868Z,14.07
2018-09-21T08:30:41.497Z,11.60
2018-09-21T08:33:12.104Z,10.38
2018-09-21T08:35:42.544Z,11.15
2018-09-21T08:38:12.658Z,10.53
2018-09-21T08:40:43.651Z,8.08
2018-09-21T08:43:13.206Z,10.48
2018-09-21T08:45:43.166Z,17.52
2018-09-21T08:48:14.115Z,11.03
2018-09-21T08:50:45.204Z,10.78
2018-09-21T08:53:14.995Z,14.60
2018-09-21T08:55:44.623Z,13.48
2018-09-21T08:58:14.699Z,12.85
2018-09-21T09:00:44.712Z,10.30
2018-09-21T09:03:14.668Z,12.40
2018-09-21T09:05:48.641Z,9.88
2018-09-21T09:08:18.507Z,10.60
2018-09-21T09:10:48.139Z,12.07
2018-09-21T09:13:18.746Z,11.20
2018-09-21T09:15:49.732Z,9.20
2018-09-21T09:18:20.462Z,9.33
2018-09-21T09:20:51.507Z,11.80
2018-09-21T09:23:21.543Z,10.13
2018-09-21T09:25:51.384Z,10.13
2018-09-21T09:28:21.014Z,10.63
2018-09-21T09:30:50.466Z,9.55
2018-09-21T09:33:19.678Z,10.23
2018-09-21T09:35:49.175Z,12.15
2018-09-21T09:38:18.256Z,9.75
2018-09-21T09:40:47.542Z,11.15
2018-09-21T09:43:16.596Z,9.53
2018-09-21T09:45:46.118Z,10.90
2018-09-21T09:48:15.144Z,12.25
2018-09-21T09:50:44.863Z,10.78
2018-09-21T09:53:14.305Z,10.72
2018-09-21T09:55:43.624Z,10.13
2018-09-21T09:58:13.215Z,11.25
2018-09-21T10:00:48.041Z,11.40
2018-09-21T10:03:17.367Z,11.97
2018-09-21T10:05:46.714Z,12.55
2018-09-21T10:08:16.249Z,16.02
2018-09-21T10:10:45.354Z,12.18
2018-09-21T10:13:14.864Z,9.60
2018-09-21T10:15:44.530Z,10.18
2018-09-21T10:18:13.855Z,9.75
2018-09-21T10:20:43.761Z,10.95
2018-09-21T10:23:13.958Z,10.82
2018-09-21T10:25:43.825Z,11.53
2018-09-21T10:28:13.471Z,13.18
2018-09-21T10:30:43.028Z,12.85
2018-09-21T10:33:12.378Z,12.65
2018-09-21T10:35:41.474Z,13.05
2018-09-21T10:38:11.006Z,15.80
2018-09-21T10:40:40.559Z,14.35
2018-09-21T10:43:09.922Z,12.47
2018-09-21T10:45:39.443Z,14.80
2018-09-21T10:48:08.807Z,13.13
2018-09-21T10:50:49.574Z,12.45
2018-09-21T10:53:19.093Z,15.15
2018-09-21T10:55:48.351Z,12.60
2018-09-21T10:58:17.434Z,12.60
2018-09-21T11:00:46.918Z,12.20
2018-09-21T11:03:17.003Z,15.28
2018-09-21T11:05:46.771Z,16.37
2018-09-21T11:08:16.539Z,13.32
2018-09-21T11:10:46.579Z,12.07
2018-09-21T11:13:15.957Z,13.80
2018-09-21T11:15:45.236Z,12.95
2018-09-21T11:18:14.903Z,14.18
2018-09-21T11:20:49.039Z,13.20
2018-09-21T11:23:19.429Z,13.45
2018-09-21T11:25:48.690Z,19.35
2018-09-21T11:28:20.076Z,18.48
2018-09-21T11:30:50.769Z,12.50
2018-09-21T11:33:34.049Z,14.43
2018-09-21T11:36:03.331Z,14.95
2018-09-21T11:38:32.839Z,12.88
2018-09-21T11:41:02.292Z,18.30
2018-09-21T11:43:32.058Z,17.52
2018-09-21T11:46:01.380Z,21.45
2018-09-21T11:48:30.430Z,15.65
2018-09-21T11:50:59.694Z,15.57
2018-09-21T11:53:29.075Z,18.37
2018-09-21T11:55:59.186Z,15.15
2018-09-21T11:58:30.012Z,13.53
2018-09-21T12:00:59.071Z,14.73
2018-09-21T12:03:28.382Z,13.53
2018-09-21T12:06:01.913Z,16.35
2018-09-21T12:08:38.751Z,13.20
2018-09-21T12:11:08.226Z,14.18
2018-09-21T12:13:39.091Z,14.07
2018-09-21T12:16:08.447Z,12.68
2018-09-21T12:18:47.266Z,14.18
2018-09-21T12:21:16.572Z,13.38
2018-09-21T12:23:53.373Z,13.48
2018-09-21T12:26:28.331Z,19.25
2018-09-21T12:28:58.614Z,14.98
2018-09-21T12:31:30.665Z,13.43
2018-09-21T12:34:00.425Z,15.45
2018-09-21T12:36:34.416Z,12.78
2018-09-21T12:39:05.652Z,12.47
2018-09-21T12:41:35.132Z,11.65
2018-09-21T12:44:06.334Z,13.35
2018-09-21T12:46:40.331Z,15.25
2018-09-21T12:49:12.551Z,14.67
2018-09-21T12:51:41.694Z,13.53
2018-09-21T12:54:12.532Z,14.70
2018-09-21T12:56:42.009Z,15.25
2018-09-21T12:59:15.960Z,14.18
2018-09-21T13:01:46.674Z,12.50
2018-09-21T13:04:16.191Z,13.30
2018-09-21T13:06:45.404Z,13.90
2018-09-21T13:09:15.135Z,21.07
2018-09-21T13:11:44.587Z,13.75
2018-09-21T13:14:14.945Z,12.93
2018-09-21T13:16:44.548Z,13.83
2018-09-21T13:19:28.899Z,14.10
2018-09-21T13:21:59.314Z,13.28
2018-09-21T13:24:33.062Z,13.00
2018-09-21T13:27:02.625Z,13.05
2018-09-21T13:29:36.095Z,14.53
2018-09-21T13:32:05.447Z,14.43
2018-09-21T13:34:36.259Z,18.73
2018-09-21T13:37:08.398Z,14.75
2018-09-21T13:39:44.459Z,14.95
2018-09-21T13:42:14.726Z,15.65
2018-09-21T13:44:47.258Z,15.15
2018-09-21T13:47:16.838Z,14.35
2018-09-21T13:49:46.752Z,17.52
2018-09-21T13:52:16.221Z,14.43
2018-09-21T13:54:48.119Z,14.30
2018-09-21T13:57:19.231Z,13.50
2018-09-21T13:59:50.452Z,13.93
2018-09-21T14:02:20.456Z,14.58
2018-09-21T14:04:52.494Z,14.18
2018-09-21T14:07:22.598Z,14.18
2018-09-21T14:09:52.684Z,13.38
2018-09-21T14:12:21.849Z,13.70
2018-09-21T14:14:51.082Z,12.80
2018-09-21T14:17:20.872Z,13.75
2018-09-21T14:19:50.362Z,12.63
2018-09-21T14:22:20.002Z,12.68
2018-09-21T14:24:49.354Z,13.60
2018-09-21T14:27:18.883Z,13.00
2018-09-21T14:29:49.268Z,12.55
2018-09-21T14:32:18.490Z,15.20
2018-09-21T14:34:48.079Z,14.38
2018-09-21T14:37:18.046Z,14.13
2018-09-21T14:39:47.251Z,14.90
2018-09-21T14:42:16.707Z,13.22
2018-09-21T14:44:47.651Z,16.00
2018-09-21T14:47:17.252Z,18.05
2018-09-21T14:49:46.894Z,13.88
2018-09-21T14:52:16.469Z,18.35
2018-09-21T14:54:45.940Z,15.93
2018-09-21T14:57:16.852Z,16.87
2018-09-21T14:59:47.200Z,17.90
2018-09-21T15:02:16.102Z,15.93
2018-09-21T15:04:45.431Z,17.27
2018-09-21T15:07:15.056Z,15.45
2018-09-21T15:09:44.066Z,15.20
2018-09-21T15:12:13.758Z,15.15
2018-09-21T15:14:43.550Z,15.78
2018-09-21T15:17:12.886Z,15.38
2018-09-21T15:19:42.768Z,14.73
2018-09-21T15:22:12.128Z,14.43
2018-09-21T15:24:41.410Z,14.25
2018-09-21T15:27:10.831Z,14.83
2018-09-21T15:29:40.010Z,14.90
2018-09-21T15:32:08.978Z,14.65
2018-09-21T15:34:38.278Z,16.97
2018-09-21T15:37:07.206Z,15.58
2018-09-21T15:39:36.802Z,15.53
2018-09-21T15:42:06.470Z,16.40
2018-09-21T15:44:36.079Z,17.55
2018-09-21T15:47:05.147Z,18.37
2018-09-21T15:49:34.679Z,16.07
2018-09-21T15:52:04.403Z,17.75
2018-09-21T15:54:33.389Z,16.15
2018-09-21T15:57:02.362Z,16.10
2018-09-21T15:59:31.944Z,16.50
2018-09-21T16:02:00.931Z,16.12
2018-09-21T16:04:29.956Z,18.10
2018-09-21T16:06:58.981Z,16.65
2018-09-21T16:09:28.030Z,18.55
2018-09-21T16:11:57.970Z,16.12
2018-09-21T16:14:27.008Z,17.80
2018-09-21T16:16:56.240Z,17.00
2018-09-21T16:19:25.763Z,17.20
2018-09-21T16:21:55.329Z,18.23
2018-09-21T16:24:24.676Z,25.80
2018-09-21T16:26:53.912Z,21.75
2018-09-21T16:29:23.485Z,21.68
2018-09-21T16:31:53.566Z,20.95
2018-09-21T16:34:23.646Z,21.23
2018-09-21T16:36:52.994Z,22.65
2018-09-21T16:39:22.260Z,25.95
2018-09-21T16:41:51.635Z,23.67
2018-09-21T16:44:21.287Z,22.85
2018-09-21T16:46:50.781Z,24.80
2018-09-21T16:49:20.152Z,22.52
2018-09-21T16:51:49.976Z,23.47
2018-09-21T16:54:19.294Z,20.75
2018-09-21T16:56:48.731Z,20.27
2018-09-21T16:59:18.472Z,21.15
2018-09-21T17:01:49.474Z,23.60
2018-09-21T17:04:19.588Z,22.37
2018-09-21T17:06:54.439Z,24.52
2018-09-21T17:09:26.431Z,21.82
2018-09-21T17:12:01.426Z,23.55
2018-09-21T17:14:30.712Z,19.65
2018-09-21T17:16:59.677Z,21.82
2018-09-21T17:19:28.603Z,27.80
2018-09-21T17:22:00.573Z,20.60
2018-09-21T17:24:29.598Z,24.52
2018-09-21T17:27:00.093Z,21.57
2018-09-21T17:29:29.851Z,20.60
2018-09-21T17:32:05.530Z,21.02
2018-09-21T17:34:36.017Z,24.30
2018-09-21T17:37:05.852Z,19.48
2018-09-21T17:39:35.538Z,20.80
2018-09-21T17:42:05.147Z,24.05
2018-09-21T17:44:34.571Z,24.45
2018-09-21T17:47:04.116Z,19.60
2018-09-21T17:49:33.511Z,22.75
2018-09-21T17:52:03.011Z,20.82
2018-09-21T17:54:32.739Z,22.87
2018-09-21T17:57:02.149Z,22.80
2018-09-21T17:59:31.960Z,21.35
2018-09-21T18:02:01.491Z,21.02
2018-09-21T18:04:31.307Z,21.90
2018-09-21T18:07:01.982Z,21.20
2018-09-21T18:09:31.994Z,21.50
2018-09-21T18:12:01.976Z,23.60
2018-09-21T18:14:31.352Z,21.57
2018-09-21T18:17:01.195Z,22.82
2018-09-21T18:19:30.478Z,21.15
2018-09-21T18:22:00.118Z,22.55
2018-09-21T18:24:29.492Z,23.90
2018-09-21T18:27:00.333Z,23.38
2018-09-21T18:29:29.352Z,26.77
2018-09-21T18:31:58.319Z,25.62
2018-09-21T18:34:30.825Z,25.70
2018-09-21T18:36:59.871Z,25.60
2018-09-21T18:39:29.223Z,24.92
2018-09-21T18:41:58.499Z,26.80
2018-09-21T18:44:29.643Z,24.57
2018-09-21T18:47:00.689Z,30.85
2018-09-21T18:49:30.389Z,35.98
2018-09-21T18:52:00.166Z,32.38
2018-09-21T18:54:30.078Z,27.70
2018-09-21T18:56:59.924Z,28.47
2018-09-21T18:59:36.727Z,26.42
2018-09-21T19:02:06.530Z,27.50
2018-09-21T19:04:38.276Z,23.70
2018-09-21T19:07:14.919Z,24.57
2018-09-21T19:09:44.571Z,23.65
2018-09-21T19:12:14.123Z,29.67
2018-09-21T19:14:47.210Z,25.92
2018-09-21T19:17:20.127Z,28.55
2018-09-21T19:19:49.950Z,28.85
2018-09-21T19:22:19.151Z,28.35
2018-09-21T19:24:48.178Z,27.60
2018-09-21T19:27:17.567Z,30.00
2018-09-21T19:29:46.956Z,28.70
2018-09-21T19:32:16.388Z,29.67
2018-09-21T19:34:48.785Z,30.70
2018-09-21T19:37:18.871Z,31.73
2018-09-21T19:39:48.654Z,32.73
2018-09-21T19:42:19.913Z,33.65
2018-09-21T19:44:49.876Z,34.50
2018-09-21T19:47:24.675Z,27.73
2018-09-21T19:49:54.343Z,28.00
2018-09-21T19:52:25.254Z,34.45
2018-09-21T19:54:55.465Z,36.77
2018-09-21T19:57:26.503Z,33.33
2018-09-21T19:59:56.578Z,39.42
2018-09-21T20:02:26.375Z,32.03
2018-09-21T20:04:55.822Z,33.73
2018-09-21T20:07:26.090Z,30.23
2018-09-21T20:09:56.442Z,29.72
2018-09-21T20:12:26.303Z,31.35
2018-09-21T20:14:55.244Z,34.70
2018-09-21T20:17:24.267Z,32.45
2018-09-21T20:19:53.439Z,29.00
2018-09-21T20:22:22.475Z,32.25
2018-09-21T20:24:51.535Z,30.45
2018-09-21T20:27:20.442Z,33.40
2018-09-21T20:29:51.507Z,31.57
2018-09-21T20:32:26.975Z,34.83
2018-09-21T20:34:56.374Z,36.33
2018-09-21T20:37:25.990Z,32.25
2018-09-21T20:39:55.213Z,35.48
2018-09-21T20:42:24.147Z,33.85
2018-09-21T20:45:04.144Z,35.55
2018-09-21T20:47:33.643Z,33.75
2018-09-21T20:50:02.544Z,34.50
2018-09-21T20:52:31.548Z,36.33
2018-09-21T20:55:00.517Z,31.82
2018-09-21T20:57:29.428Z,36.88
2018-09-21T20:59:58.351Z,32.70
2018-09-21T21:02:27.690Z,34.50
2018-09-21T21:04:57.211Z,31.48
2018-09-21T21:07:26.167Z,35.17
2018-09-21T21:09:55.120Z,37.17
2018-09-21T21:12:24.075Z,34.48
2018-09-21T21:14:53.409Z,34.98
2018-09-21T21:17:24.619Z,34.80
2018-09-21T21:19:53.578Z,37.25
2018-09-21T21:22:23.165Z,36.00
2018-09-21T21:24:52.989Z,36.48
2018-09-21T21:27:21.948Z,35.50
2018-09-21T21:29:50.866Z,41.03
2018-09-21T21:32:19.842Z,38.10
2018-09-21T21:34:48.754Z,38.83
2018-09-21T21:37:18.015Z,34.38
2018-09-21T21:39:46.918Z,38.10
2018-09-21T21:42:15.874Z,36.03
2018-09-21T21:44:44.822Z,37.88
2018-09-21T21:47:13.767Z,39.83
2018-09-21T21:49:42.839Z,34.63
2018-09-21T21:52:11.775Z,36.23
2018-09-21T21:54:40.722Z,33.75
2018-09-21T21:57:09.640Z,39.70
2018-09-21T21:59:38.587Z,36.00
2018-09-21T22:02:11.094Z,37.00
2018-09-21T22:04:40.386Z,37.80
2018-09-21T22:07:09.944Z,41.50
2018-09-21T22:09:38.859Z,41.00
2018-09-21T22:12:13.157Z,37.42
2018-09-21T22:14:42.284Z,38.00
2018-09-21T22:17:11.186Z,37.57
2018-09-21T22:19:40.251Z,35.40
2018-09-21T22:22:09.175Z,37.00
2018-09-21T22:24:38.146Z,35.37
2018-09-21T22:27:07.229Z,35.40
2018-09-21T22:29:36.172Z,37.67
2018-09-21T22:32:05.123Z,33.13
2018-09-21T22:34:34.026Z,36.97
2018-09-21T22:37:02.986Z,38.63
2018-09-21T22:39:31.930Z,37.27
2018-09-21T22:42:00.883Z,34.50
2018-09-21T22:44:29.830Z,34.73
2018-09-21T22:46:58.752Z,36.75
2018-09-21T22:49:27.818Z,33.08
2018-09-21T22:51:56.765Z,32.17
2018-09-21T22:54:25.683Z,35.08
2018-09-21T22:56:54.642Z,34.03
2018-09-21T22:59:23.618Z,37.20
2018-09-21T23:01:52.554Z,37.33
2018-09-21T23:04:21.562Z,36.17
2018-09-21T23:06:50.510Z,39.20
2018-09-21T23:09:19.447Z,35.23
2018-09-21T23:11:48.455Z,37.43
2018-09-21T23:14:17.395Z,34.67
2018-09-21T23:16:46.440Z,36.83
2018-09-21T23:19:15.471Z,33.63
2018-09-21T23:21:44.390Z,33.73
2018-09-21T23:24:13.358Z,34.77
2018-09-21T23:26:42.343Z,35.80
2018-09-21T23:29:11.315Z,33.70
2018-09-21T23:31:40.269Z,30.70
2018-09-21T23:34:09.301Z,30.37
2018-09-21T23:36:38.271Z,34.10
2018-09-21T23:39:09.327Z,29.50
2018-09-21T23:41:38.602Z,35.77
2018-09-21T23:44:08.074Z,29.67
2018-09-21T23:46:37.011Z,30.93
2018-09-21T23:49:06.282Z,30.23
2018-09-21T23:51:35.259Z,27.53
2018-09-21T23:54:04.202Z,26.77
2018-09-21T23:56:33.164Z,26.73
2018-09-21T23:59:02.140Z,24.37
